createdAt,value
2022-11-16T00:01:41.880Z,7.52
2022-11-16T00:04:11.760Z,7.43
2022-11-16T00:06:38.230Z,7.38
2022-11-16T00:09:22.506Z,7.47
2022-11-16T00:11:51.244Z,7.42
2022-11-16T00:14:18.961Z,7.34
2022-11-16T00:16:45.544Z,7.38
2022-11-16T00:19:12.454Z,7.47
2022-11-16T00:21:39.351Z,7.38
2022-11-16T00:24:06.393Z,7.52
2022-11-16T00:26:32.825Z,7.26
2022-11-16T00:28:59.224Z,7.35
2022-11-16T00:31:25.666Z,7.41
2022-11-16T00:33:52.463Z,7.31
2022-11-16T00:36:19.134Z,7.35
2022-11-16T00:38:45.901Z,7.39
2022-11-16T00:41:12.346Z,7.52
2022-11-16T00:43:39.244Z,7.39
2022-11-16T00:46:05.989Z,7.45
2022-11-16T00:48:32.713Z,7.37
2022-11-16T00:50:59.282Z,7.40
2022-11-16T00:53:25.719Z,7.57
2022-11-16T00:55:52.110Z,7.54
2022-11-16T00:58:18.500Z,7.53
2022-11-16T01:00:44.944Z,7.44
2022-11-16T01:03:11.776Z,7.54
2022-11-16T01:05:38.741Z,7.58
2022-11-16T01:08:05.441Z,7.59
2022-11-16T01:10:32.218Z,7.60
2022-11-16T01:12:58.619Z,7.79
2022-11-16T01:15:26.823Z,7.66
2022-11-16T01:17:55.155Z,7.63
2022-11-16T01:20:22.714Z,7.60
2022-11-16T01:22:49.290Z,7.53
2022-11-16T01:25:16.193Z,7.59
2022-11-16T01:27:44.027Z,7.53
2022-11-16T01:30:13.273Z,7.68
2022-11-16T01:32:39.922Z,7.66
2022-11-16T01:35:07.501Z,7.56
2022-11-16T01:37:34.073Z,7.58
2022-11-16T01:40:00.525Z,7.66
2022-11-16T01:42:28.734Z,7.73
2022-11-16T01:44:59.790Z,7.64
2022-11-16T01:47:26.374Z,7.57
2022-11-16T01:50:02.415Z,7.67
2022-11-16T01:52:32.573Z,7.70
2022-11-16T01:54:59.353Z,7.54
2022-11-16T01:57:38.114Z,7.54
2022-11-16T02:00:07.997Z,7.63
2022-11-16T02:02:34.426Z,7.54
2022-11-16T02:05:02.799Z,7.76
2022-11-16T02:07:55.801Z,7.50
2022-11-16T02:10:36.282Z,7.46
2022-11-16T02:13:19.146Z,7.67
2022-11-16T02:16:14.433Z,7.65
2022-11-16T02:19:23.547Z,7.62
2022-11-16T02:21:56.470Z,7.62
2022-11-16T02:24:51.823Z,7.52
2022-11-16T02:27:39.662Z,7.44
2022-11-16T02:30:07.206Z,7.38
2022-11-16T02:32:36.598Z,7.47
2022-11-16T02:35:14.628Z,7.61
2022-11-16T02:37:48.857Z,7.67
2022-11-16T02:40:17.441Z,7.62
2022-11-16T02:42:52.737Z,7.49
2022-11-16T02:45:25.723Z,7.42
2022-11-16T02:47:54.933Z,7.44
2022-11-16T02:50:23.271Z,7.33
2022-11-16T02:52:49.857Z,7.40
2022-11-16T02:55:16.542Z,7.44
2022-11-16T02:57:42.979Z,7.39
2022-11-16T03:00:17.058Z,7.43
2022-11-16T03:02:54.354Z,7.44
2022-11-16T03:05:39.396Z,7.49
2022-11-16T03:08:11.796Z,7.37
2022-11-16T03:10:59.264Z,7.32
2022-11-16T03:13:30.299Z,7.53
2022-11-16T03:15:57.913Z,7.38
2022-11-16T03:18:28.941Z,7.35
2022-11-16T03:21:05.428Z,7.47
2022-11-16T03:23:32.068Z,7.43
2022-11-16T03:26:00.264Z,7.55
2022-11-16T03:28:41.412Z,7.52
2022-11-16T03:31:13.837Z,7.54
2022-11-16T03:33:45.825Z,7.59
2022-11-16T03:36:21.832Z,7.51
2022-11-16T03:38:50.878Z,7.43
2022-11-16T03:41:20.396Z,7.40
2022-11-16T03:43:49.115Z,7.38
2022-11-16T03:46:17.408Z,7.50
2022-11-16T03:48:43.793Z,7.46
2022-11-16T03:51:11.273Z,7.47
2022-11-16T03:53:37.836Z,7.36
2022-11-16T03:56:04.540Z,7.32
2022-11-16T03:58:31.622Z,7.35
2022-11-16T04:00:58.428Z,7.52
2022-11-16T04:03:24.849Z,7.48
2022-11-16T04:06:10.034Z,7.63
2022-11-16T04:08:55.012Z,7.54
2022-11-16T04:11:41.169Z,7.49
2022-11-16T04:14:32.287Z,7.48
2022-11-16T04:17:17.482Z,7.66
2022-11-16T04:20:02.157Z,7.57
2022-11-16T04:22:51.382Z,7.53
2022-11-16T04:25:24.247Z,7.53
2022-11-16T04:28:09.258Z,7.65
2022-11-16T04:30:54.261Z,7.45
2022-11-16T04:33:39.258Z,7.40
2022-11-16T04:36:24.860Z,7.46
2022-11-16T04:38:51.273Z,7.34
2022-11-16T04:41:36.313Z,7.25
2022-11-16T04:44:02.790Z,7.28
2022-11-16T04:46:47.697Z,7.30
2022-11-16T04:49:14.184Z,7.31
2022-11-16T04:51:40.632Z,7.22
2022-11-16T04:54:07.032Z,7.18
2022-11-16T04:56:33.486Z,7.18
2022-11-16T04:58:59.992Z,7.16
2022-11-16T05:01:45.046Z,7.12
2022-11-16T05:04:11.786Z,7.21
2022-11-16T05:06:38.203Z,7.25
2022-11-16T05:09:04.685Z,7.14
2022-11-16T05:11:31.187Z,7.17
2022-11-16T05:13:57.596Z,7.18
2022-11-16T05:16:24.007Z,7.23
2022-11-16T05:19:10.456Z,7.29
2022-11-16T05:21:36.946Z,7.18
2022-11-16T05:24:22.569Z,7.11
2022-11-16T05:26:49.009Z,7.09
2022-11-16T05:29:15.486Z,7.12
2022-11-16T05:31:41.944Z,7.10
2022-11-16T05:34:09.639Z,7.10
2022-11-16T05:36:36.375Z,7.20
2022-11-16T05:39:03.517Z,7.11
2022-11-16T05:41:30.533Z,7.03
2022-11-16T05:43:57.014Z,6.99
2022-11-16T05:46:24.086Z,7.05
2022-11-16T05:48:50.988Z,7.07
2022-11-16T05:51:17.491Z,6.98
2022-11-16T05:53:44.394Z,6.94
2022-11-16T05:56:11.681Z,6.96
2022-11-16T05:58:38.167Z,6.78
2022-11-16T06:01:04.657Z,6.83
2022-11-16T06:03:31.767Z,6.91
2022-11-16T06:05:58.893Z,7.10
2022-11-16T06:08:25.301Z,7.11
2022-11-16T06:10:51.856Z,6.91
2022-11-16T06:13:18.306Z,6.96
2022-11-16T06:15:51.519Z,7.37
2022-11-16T06:18:17.999Z,6.97
2022-11-16T06:20:44.426Z,7.40
2022-11-16T06:23:10.826Z,7.08
2022-11-16T06:25:39.510Z,7.11
2022-11-16T06:28:08.057Z,6.94
2022-11-16T06:30:34.943Z,7.04
2022-11-16T06:33:01.365Z,6.99
2022-11-16T06:35:27.799Z,7.11
2022-11-16T06:37:55.335Z,6.90
2022-11-16T06:40:21.802Z,6.92
2022-11-16T06:42:48.226Z,6.94
2022-11-16T06:45:14.718Z,6.82
2022-11-16T06:47:41.170Z,6.83
2022-11-16T06:50:08.077Z,6.91
2022-11-16T06:52:34.568Z,6.88
2022-11-16T06:55:00.998Z,7.09
2022-11-16T06:57:27.470Z,6.99
2022-11-16T06:59:53.894Z,7.01
2022-11-16T07:02:21.429Z,6.97
2022-11-16T07:04:47.882Z,6.86
2022-11-16T07:07:15.840Z,6.98
2022-11-16T07:09:44.634Z,6.93
2022-11-16T07:12:11.060Z,7.02
2022-11-16T07:14:37.512Z,7.12
2022-11-16T07:17:09.298Z,7.07
2022-11-16T07:19:36.719Z,7.07
2022-11-16T07:22:04.233Z,6.97
2022-11-16T07:24:30.730Z,7.05
2022-11-16T07:26:57.367Z,7.00
2022-11-16T07:29:24.488Z,7.12
2022-11-16T07:31:51.103Z,7.18
2022-11-16T07:34:17.586Z,7.15
2022-11-16T07:36:44.056Z,7.03
2022-11-16T07:39:10.504Z,7.28
2022-11-16T07:41:42.413Z,7.17
2022-11-16T07:44:12.064Z,7.32
2022-11-16T07:46:47.890Z,7.23
2022-11-16T07:49:16.541Z,7.29
2022-11-16T07:51:43.308Z,7.23
2022-11-16T07:54:13.492Z,7.42
2022-11-16T07:56:40.251Z,7.40
2022-11-16T07:59:06.674Z,7.27
2022-11-16T08:01:33.526Z,7.38
2022-11-16T08:04:01.824Z,7.34
2022-11-16T08:06:30.078Z,7.22
2022-11-16T08:08:58.886Z,7.42
2022-11-16T08:11:26.053Z,7.38
2022-11-16T08:13:52.500Z,7.38
2022-11-16T08:16:21.566Z,7.55
2022-11-16T08:18:48.544Z,7.49
2022-11-16T08:21:16.945Z,7.61
2022-11-16T08:23:44.959Z,7.64
2022-11-16T08:26:17.121Z,7.61
2022-11-16T08:28:45.233Z,7.78
2022-11-16T08:31:17.398Z,7.63
2022-11-16T08:33:44.315Z,7.56
2022-11-16T08:36:17.005Z,7.72
2022-11-16T08:38:48.378Z,7.65
2022-11-16T08:41:16.158Z,7.67
2022-11-16T08:43:44.440Z,7.81
2022-11-16T08:46:11.075Z,7.77
2022-11-16T08:48:37.849Z,7.75
2022-11-16T08:51:22.505Z,7.78
2022-11-16T08:53:49.967Z,7.77
2022-11-16T08:56:18.284Z,7.95
2022-11-16T08:58:47.099Z,7.93
2022-11-16T09:01:19.838Z,7.95
2022-11-16T09:03:46.592Z,7.87
2022-11-16T09:06:13.757Z,7.82
2022-11-16T09:08:42.364Z,7.74
2022-11-16T09:11:11.532Z,7.74
2022-11-16T09:13:38.557Z,7.85
2022-11-16T09:16:05.385Z,8.04
2022-11-16T09:18:32.188Z,7.86
2022-11-16T09:20:58.926Z,7.84
2022-11-16T09:23:25.971Z,7.75
2022-11-16T09:25:53.385Z,7.86
2022-11-16T09:28:21.696Z,7.99
2022-11-16T09:30:50.300Z,7.96
2022-11-16T09:33:16.978Z,7.81
2022-11-16T09:35:43.602Z,7.60
2022-11-16T09:38:11.890Z,7.54
2022-11-16T09:40:46.162Z,7.51
2022-11-16T09:43:45.854Z,7.45
2022-11-16T09:46:20.635Z,7.57
2022-11-16T09:48:49.373Z,7.49
2022-11-16T09:51:18.494Z,7.70
2022-11-16T09:53:50.902Z,7.96
2022-11-16T09:56:25.680Z,8.10
2022-11-16T09:58:55.496Z,8.13
2022-11-16T10:01:47.749Z,7.87
2022-11-16T10:04:26.339Z,7.82
2022-11-16T10:07:08.692Z,7.73
2022-11-16T10:09:36.146Z,7.64
2022-11-16T10:12:37.891Z,7.63
2022-11-16T10:15:16.940Z,7.60
2022-11-16T10:17:52.551Z,7.80
2022-11-16T10:20:46.428Z,7.73
2022-11-16T10:23:23.317Z,7.56
2022-11-16T10:25:55.267Z,7.59
2022-11-16T10:28:51.982Z,7.67
2022-11-16T10:31:40.198Z,7.65
2022-11-16T10:34:09.494Z,7.72
2022-11-16T10:36:37.574Z,7.76
2022-11-16T10:39:13.838Z,7.84
2022-11-16T10:41:43.733Z,7.82
2022-11-16T10:44:22.128Z,7.82
2022-11-16T10:47:01.885Z,7.68
2022-11-16T10:49:54.939Z,7.90
2022-11-16T10:52:21.426Z,7.73
2022-11-16T10:54:49.654Z,7.63
2022-11-16T10:57:17.281Z,7.51
2022-11-16T10:59:47.303Z,7.55
2022-11-16T11:02:36.867Z,7.53
2022-11-16T11:05:13.993Z,7.59
2022-11-16T11:07:52.987Z,7.82
2022-11-16T11:10:34.519Z,7.63
2022-11-16T11:13:07.557Z,7.57
2022-11-16T11:15:34.326Z,7.78
2022-11-16T11:18:11.672Z,7.74
2022-11-16T11:20:44.277Z,7.60
2022-11-16T11:23:18.884Z,7.78
2022-11-16T11:26:00.180Z,7.70
2022-11-16T11:28:36.514Z,7.63
2022-11-16T11:31:17.313Z,7.73
2022-11-16T11:33:51.431Z,7.83
2022-11-16T11:36:36.052Z,7.75
2022-11-16T11:39:05.235Z,7.93
2022-11-16T11:41:39.310Z,7.93
2022-11-16T11:44:18.133Z,7.75
2022-11-16T11:50:33.018Z,7.96
2022-11-16T11:53:26.292Z,7.85
2022-11-16T11:55:57.742Z,8.20
2022-11-16T11:58:37.337Z,7.80
2022-11-16T12:01:40.116Z,8.03
2022-11-16T12:04:25.270Z,7.57
2022-11-16T12:07:05.302Z,7.44
2022-11-16T12:09:34.667Z,7.51
2022-11-16T12:12:14.783Z,7.57
2022-11-16T12:14:59.789Z,7.48
2022-11-16T12:17:38.507Z,7.36
2022-11-16T12:20:21.741Z,7.30
2022-11-16T12:23:06.854Z,7.32
2022-11-16T12:26:00.881Z,7.44
2022-11-16T12:28:58.418Z,7.50
2022-11-16T12:31:39.864Z,7.45
2022-11-16T12:34:25.134Z,7.39
2022-11-16T12:37:17.568Z,7.44
2022-11-16T12:39:57.811Z,7.53
2022-11-16T12:42:40.317Z,7.31
2022-11-16T12:45:32.649Z,7.41
2022-11-16T12:48:32.165Z,7.24
2022-11-16T12:51:07.467Z,7.55
2022-11-16T12:53:58.266Z,7.32
2022-11-16T12:56:54.072Z,7.33
2022-11-16T12:59:39.324Z,7.27
2022-11-16T13:02:24.932Z,7.56
2022-11-16T13:04:58.504Z,7.55
2022-11-16T13:07:30.062Z,7.34
2022-11-16T13:10:07.039Z,7.25
2022-11-16T13:12:35.582Z,7.22
2022-11-16T13:15:03.488Z,7.21
2022-11-16T13:17:37.456Z,7.41
2022-11-16T13:20:21.908Z,7.53
2022-11-16T13:22:57.732Z,7.41
2022-11-16T13:25:36.771Z,7.22
2022-11-16T13:28:23.418Z,7.13
2022-11-16T13:31:02.535Z,7.21
2022-11-16T13:33:28.980Z,7.23
2022-11-16T13:35:55.435Z,7.25
2022-11-16T13:38:52.926Z,7.25
2022-11-16T13:41:32.633Z,7.21
2022-11-16T13:44:00.071Z,7.21
2022-11-16T13:46:56.369Z,7.31
2022-11-16T13:49:32.043Z,7.23
2022-11-16T13:52:17.174Z,7.35
2022-11-16T13:54:51.535Z,7.19
2022-11-16T13:57:33.850Z,7.19
2022-11-16T14:00:04.839Z,7.21
2022-11-16T14:02:39.254Z,7.34
2022-11-16T14:05:36.222Z,7.34
2022-11-16T14:08:24.343Z,7.29
2022-11-16T14:10:50.672Z,7.08
2022-11-16T14:13:47.148Z,7.26
2022-11-16T14:16:20.009Z,7.09
2022-11-16T14:18:47.748Z,7.03
2022-11-16T14:21:17.386Z,7.09
2022-11-16T14:24:12.941Z,7.27
2022-11-16T14:26:47.344Z,7.14
2022-11-16T14:29:23.292Z,7.25
2022-11-16T14:31:54.159Z,7.28
2022-11-16T14:34:25.222Z,7.17
2022-11-16T14:36:51.871Z,7.17
2022-11-16T14:39:40.703Z,7.15
2022-11-16T14:42:20.100Z,6.98
2022-11-16T14:44:47.515Z,6.95
2022-11-16T14:47:25.846Z,6.89
2022-11-16T14:49:54.113Z,6.78
2022-11-16T14:52:32.273Z,6.76
2022-11-16T14:55:00.491Z,7.06
2022-11-16T14:57:26.818Z,6.84
2022-11-16T15:00:12.139Z,6.65
2022-11-16T15:02:40.211Z,6.66
2022-11-16T15:05:07.303Z,6.72
2022-11-16T15:07:33.858Z,6.61
2022-11-16T15:10:00.536Z,6.64
2022-11-16T15:12:42.506Z,6.54
2022-11-16T15:15:11.982Z,6.60
2022-11-16T15:17:40.664Z,6.61
2022-11-16T15:20:25.145Z,6.65
2022-11-16T15:22:54.082Z,6.71
2022-11-16T15:25:43.276Z,6.71
2022-11-16T15:28:20.589Z,6.79
2022-11-16T15:30:51.671Z,6.89
2022-11-16T15:33:24.045Z,6.76
2022-11-16T15:35:50.515Z,6.86
2022-11-16T15:38:21.196Z,6.96
2022-11-16T15:40:58.652Z,6.75
2022-11-16T15:43:36.044Z,6.89
2022-11-16T15:46:08.366Z,6.74
2022-11-16T15:48:38.151Z,6.69
2022-11-16T15:51:05.199Z,6.58
2022-11-16T15:53:40.534Z,6.75
2022-11-16T15:56:22.322Z,6.61
2022-11-16T15:58:49.479Z,6.57
2022-11-16T16:01:17.509Z,6.65
2022-11-16T16:03:59.262Z,6.77
2022-11-16T16:06:50.605Z,6.78
2022-11-16T16:09:27.726Z,6.76
2022-11-16T16:11:57.125Z,6.67
2022-11-16T16:14:26.463Z,6.60
2022-11-16T16:16:56.609Z,6.68
2022-11-16T16:19:44.622Z,6.59
2022-11-16T16:22:25.362Z,6.76
2022-11-16T16:24:52.123Z,6.78
2022-11-16T16:27:21.845Z,6.86
2022-11-16T16:29:57.160Z,6.73
2022-11-16T16:32:26.610Z,6.68
2022-11-16T16:34:55.041Z,6.76
2022-11-16T16:37:22.397Z,6.83
2022-11-16T16:39:48.891Z,6.78
2022-11-16T16:42:16.755Z,6.92
2022-11-16T16:44:44.541Z,6.83
2022-11-16T16:47:11.675Z,6.87
2022-11-16T16:49:38.173Z,6.79
2022-11-16T16:52:05.938Z,6.85
2022-11-16T16:54:32.803Z,6.76
2022-11-16T16:57:01.282Z,6.94
2022-11-16T16:59:29.909Z,6.78
2022-11-16T17:01:57.440Z,6.67
2022-11-16T17:04:23.849Z,6.67
2022-11-16T17:06:51.617Z,6.70
2022-11-16T17:09:18.189Z,6.66
2022-11-16T17:11:46.820Z,6.68
2022-11-16T17:14:13.245Z,6.86
2022-11-16T17:16:39.649Z,6.94
2022-11-16T17:19:06.278Z,6.81
2022-11-16T17:21:32.792Z,6.78
2022-11-16T17:23:59.244Z,6.73
2022-11-16T17:26:29.190Z,6.74
2022-11-16T17:28:59.189Z,6.69
2022-11-16T17:31:26.553Z,6.71
2022-11-16T17:33:53.024Z,6.60
2022-11-16T17:36:20.035Z,6.57
2022-11-16T17:38:46.774Z,6.66
2022-11-16T17:41:18.779Z,6.57
2022-11-16T17:43:46.933Z,6.76
2022-11-16T17:46:18.238Z,6.57
2022-11-16T17:48:47.077Z,6.54
2022-11-16T17:51:16.282Z,6.47
2022-11-16T17:53:46.250Z,6.57
2022-11-16T17:56:14.514Z,6.50
2022-11-16T17:58:41.633Z,6.64
2022-11-16T18:01:08.646Z,6.43
2022-11-16T18:03:36.443Z,6.67
2022-11-16T18:06:10.975Z,6.49
2022-11-16T18:08:37.786Z,6.69
2022-11-16T18:11:09.702Z,6.52
2022-11-16T18:13:37.163Z,6.32
2022-11-16T18:16:11.091Z,6.24
2022-11-16T18:18:38.402Z,6.35
2022-11-16T18:21:06.109Z,6.35
2022-11-16T18:23:34.312Z,6.35
2022-11-16T18:26:03.276Z,6.33
2022-11-16T18:28:30.195Z,6.36
2022-11-16T18:31:13.786Z,6.28
2022-11-16T18:33:40.250Z,6.17
2022-11-16T18:36:08.156Z,6.16
2022-11-16T18:38:34.975Z,6.17
2022-11-16T18:41:04.503Z,6.11
2022-11-16T18:43:31.230Z,6.12
2022-11-16T18:45:57.774Z,6.10
2022-11-16T18:48:24.182Z,6.06
2022-11-16T18:50:50.574Z,6.19
2022-11-16T18:53:17.250Z,6.09
2022-11-16T18:55:52.391Z,6.07
2022-11-16T18:58:49.378Z,6.17
2022-11-16T19:01:12.511Z,6.07
2022-11-16T19:03:39.006Z,6.22
2022-11-16T19:06:09.999Z,6.11
2022-11-16T19:08:38.446Z,6.18
2022-11-16T19:11:09.757Z,6.24
2022-11-16T19:13:36.429Z,6.21
2022-11-16T19:16:03.785Z,6.09
2022-11-16T19:18:30.271Z,6.04
2022-11-16T19:21:10.983Z,6.04
2022-11-16T19:23:48.277Z,5.96
2022-11-16T19:26:16.171Z,5.94
2022-11-16T19:28:44.964Z,6.01
2022-11-16T19:31:20.383Z,6.15
2022-11-16T19:33:46.865Z,6.33
2022-11-16T19:36:18.698Z,6.19
2022-11-16T19:38:48.104Z,6.12
2022-11-16T19:41:16.115Z,5.96
2022-11-16T19:43:42.614Z,5.90
2022-11-16T19:46:16.517Z,5.94
2022-11-16T19:48:44.293Z,5.90
2022-11-16T19:51:13.115Z,5.82
2022-11-16T19:53:39.989Z,5.79
2022-11-16T19:56:09.899Z,5.97
2022-11-16T19:58:38.230Z,5.97
2022-11-16T20:01:06.096Z,5.81
2022-11-16T20:03:33.584Z,5.90
2022-11-16T20:06:15.106Z,5.95
2022-11-16T20:08:43.266Z,5.73
2022-11-16T20:11:18.631Z,5.66
2022-11-16T20:13:45.118Z,5.67
2022-11-16T20:16:13.001Z,5.59
2022-11-16T20:18:41.143Z,5.66
2022-11-16T20:21:11.541Z,5.80
2022-11-16T20:23:38.122Z,5.77
2022-11-16T20:26:06.806Z,5.69
2022-11-16T20:28:37.844Z,5.70
2022-11-16T20:31:08.681Z,5.62
2022-11-16T20:33:35.398Z,5.48
2022-11-16T20:36:08.247Z,5.70
2022-11-16T20:38:35.958Z,5.47
2022-11-16T20:41:13.663Z,5.56
2022-11-16T20:43:41.107Z,5.45
2022-11-16T20:46:18.050Z,5.42
2022-11-16T20:48:45.171Z,5.45
2022-11-16T20:51:15.159Z,5.67
2022-11-16T20:53:41.665Z,5.70
2022-11-16T20:56:10.282Z,5.36
2022-11-16T20:58:37.389Z,5.32
2022-11-16T21:01:06.811Z,5.69
2022-11-16T21:03:33.880Z,5.36
2022-11-16T21:06:01.066Z,5.16
2022-11-16T21:08:29.589Z,5.11
2022-11-16T21:10:56.312Z,5.38
2022-11-16T21:13:41.410Z,5.11
2022-11-16T21:16:11.401Z,5.13
2022-11-16T21:18:39.400Z,5.04
2022-11-16T21:21:08.271Z,4.90
2022-11-16T21:23:37.280Z,4.97
2022-11-16T21:26:05.754Z,4.97
2022-11-16T21:28:32.284Z,4.91
2022-11-16T21:31:01.019Z,4.65
2022-11-16T21:33:28.144Z,4.65
2022-11-16T21:35:55.386Z,4.77
2022-11-16T21:38:23.596Z,4.49
2022-11-16T21:40:50.178Z,4.43
2022-11-16T21:43:17.216Z,4.35
2022-11-16T21:45:48.183Z,4.34
2022-11-16T21:48:15.294Z,4.23
2022-11-16T21:50:41.710Z,4.21
2022-11-16T21:53:08.466Z,4.21
2022-11-16T21:55:35.400Z,4.22
2022-11-16T21:58:03.475Z,4.17
2022-11-16T22:00:30.409Z,4.30
2022-11-16T22:02:56.849Z,4.13
2022-11-16T22:05:41.923Z,4.27
2022-11-16T22:08:11.492Z,4.27
2022-11-16T22:10:37.982Z,4.17
2022-11-16T22:13:04.422Z,4.05
2022-11-16T22:15:30.887Z,4.11
2022-11-16T22:17:57.525Z,4.11
2022-11-16T22:20:23.965Z,4.06
2022-11-16T22:22:50.358Z,4.10
2022-11-16T22:25:18.608Z,4.22
2022-11-16T22:28:13.913Z,4.17
2022-11-16T22:30:33.960Z,4.05
2022-11-16T22:33:00.410Z,4.16
2022-11-16T22:35:26.795Z,4.02
2022-11-16T22:37:53.412Z,4.04
2022-11-16T22:40:19.831Z,3.95
2022-11-16T22:42:46.219Z,3.91
2022-11-16T22:45:12.610Z,4.02
2022-11-16T22:47:39.068Z,4.01
2022-11-16T22:50:05.907Z,4.01
2022-11-16T22:52:32.339Z,4.08
2022-11-16T22:54:58.767Z,4.01
2022-11-16T22:57:25.196Z,4.06
2022-11-16T22:59:51.702Z,3.92
2022-11-16T23:02:18.238Z,3.95
2022-11-16T23:04:44.631Z,3.81
2022-11-16T23:07:11.043Z,3.74
2022-11-16T23:09:37.504Z,3.68
2022-11-16T23:12:22.458Z,3.72
2022-11-16T23:15:07.234Z,3.72
2022-11-16T23:17:33.643Z,3.71
2022-11-16T23:20:18.485Z,3.65
2022-11-16T23:23:03.217Z,3.57
2022-11-16T23:25:48.220Z,3.46
2022-11-16T23:28:16.241Z,3.53
2022-11-16T23:30:42.721Z,3.44
2022-11-16T23:33:10.026Z,3.50
2022-11-16T23:35:36.594Z,3.58
2022-11-16T23:38:05.605Z,3.51
2022-11-16T23:40:33.381Z,3.50
2022-11-16T23:43:18.513Z,3.46
2022-11-16T23:45:45.300Z,3.40
2022-11-16T23:48:14.150Z,3.31
2022-11-16T23:50:41.045Z,3.44
2022-11-16T23:53:09.018Z,3.41
2022-11-16T23:55:38.304Z,3.53
2022-11-16T23:58:06.352Z,3.39
